Time;durP1;ratioP1;P1;durP2;ratioP2;P2;SDS_P1;SDS_P2;PMS_P1;PMS_P2;Temp;Humidity;BMP_temperature;BMP_pressure;BME280_temperature;BME280_humidity;BME280_pressure;Samples;Min_cycle;Max_cycle;Signal;HPM_P1;HPM_P2
2024/01/04 00:03:27;;;;;;;6.30;1.45;;;;;;;19.30;40.57;99569.00;16115803;19;130088;-64
2024/01/04 00:08:49;;;;;;;6.25;1.63;;;;;;;19.28;40.59;99571.22;16109481;19;130206;-64
2024/01/04 00:14:11;;;;;;;3.10;1.10;;;;;;;19.25;40.28;99584.81;16115323;19;131037;-64
2024/01/04 00:19:33;;;;;;;5.53;1.40;;;;;;;19.21;40.44;99598.41;16115693;19;129099;-63
2024/01/04 00:24:55;;;;;;;3.58;1.25;;;;;;;19.18;40.50;99610.06;16114357;19;130893;-64
2024/01/04 00:30:17;;;;;;;5.30;1.00;;;;;;;19.16;40.76;99623.34;16114054;19;129486;-64
2024/01/04 00:35:39;;;;;;;7.20;1.40;;;;;;;19.13;40.57;99627.53;16114758;19;129484;-63
2024/01/04 00:41:02;;;;;;;5.13;1.02;;;;;;;19.11;40.58;99642.75;16113325;19;130900;-64
2024/01/04 00:46:24;;;;;;;3.20;1.10;;;;;;;19.08;40.37;99647.75;16111194;19;132305;-64
2024/01/04 00:51:46;;;;;;;9.48;1.15;;;;;;;19.07;40.33;99661.91;16110369;19;129807;-64
2024/01/04 00:57:09;;;;;;;2.90;1.20;;;;;;;19.04;40.38;99668.84;16116650;19;129766;-64
2024/01/04 01:02:31;;;;;;;5.20;1.63;;;;;;;19.02;40.58;99679.38;16108694;19;130267;-64
2024/01/04 01:07:53;;;;;;;2.38;1.33;;;;;;;19.00;40.60;99691.88;16104812;19;130574;-64
2024/01/04 01:13:20;;;;;;;2.22;0.90;;;;;;;18.99;40.54;99702.09;16109898;19;129950;-64
2024/01/04 01:18:42;;;;;;;3.33;1.23;;;;;;;18.96;40.37;99705.44;16115079;19;130318;-64
2024/01/04 01:24:04;;;;;;;2.63;1.20;;;;;;;18.94;40.53;99718.75;16113425;19;130282;-64
2024/01/04 01:29:26;;;;;;;3.38;0.93;;;;;;;18.92;40.78;99726.50;16109450;19;129682;-63
2024/01/04 01:34:48;;;;;;;3.70;1.23;;;;;;;18.89;40.36;99736.19;16104071;19;130659;-63
2024/01/04 01:40:10;;;;;;;2.95;0.80;;;;;;;18.88;40.48;99742.03;16109436;19;129406;-64
2024/01/04 01:45:32;;;;;;;2.40;0.90;;;;;;;18.87;40.43;99749.50;16113811;19;129486;-64
2024/01/04 01:50:54;;;;;;;4.50;0.85;;;;;;;18.85;40.38;99754.50;16108733;19;134486;-64
2024/01/04 01:56:16;;;;;;;4.03;0.95;;;;;;;18.84;40.46;99768.59;16105499;19;131308;-63
2024/01/04 02:01:38;;;;;;;3.95;1.10;;;;;;;18.83;40.36;99766.97;16106363;19;130346;-64
2024/01/04 02:07:01;;;;;;;3.45;1.23;;;;;;;18.82;40.78;99779.16;16105619;19;130627;-64
2024/01/04 02:12:23;;;;;;;2.55;0.80;;;;;;;18.79;40.56;99782.47;16107502;19;129869;-64
2024/01/04 02:17:45;;;;;;;1.73;0.68;;;;;;;18.77;40.70;99791.91;16109299;19;131156;-63
2024/01/04 02:23:15;;;;;;;2.88;0.88;;;;;;;18.77;40.85;99802.97;16106914;19;129197;-64
2024/01/04 02:28:37;;;;;;;1.75;0.80;;;;;;;18.75;40.69;99810.72;16106948;19;129617;-64
2024/01/04 02:33:59;;;;;;;3.22;0.85;;;;;;;18.74;40.35;99820.13;16117896;19;131476;-63
2024/01/04 02:39:21;;;;;;;3.40;1.00;;;;;;;18.72;40.63;99816.81;16118666;19;132157;-63
2024/01/04 02:44:43;;;;;;;2.15;0.80;;;;;;;18.71;40.82;99831.75;16119003;19;131085;-64
2024/01/04 02:50:05;;;;;;;1.95;0.85;;;;;;;18.70;40.54;99841.22;16120026;19;133690;-63
2024/01/04 02:55:27;;;;;;;2.95;0.70;;;;;;;18.69;40.34;99845.09;16119422;19;129800;-63
2024/01/04 03:00:49;;;;;;;4.30;1.08;;;;;;;18.67;40.62;99847.28;16123669;19;133655;-64
2024/01/04 03:06:11;;;;;;;4.05;1.23;;;;;;;18.66;40.43;99853.09;16120074;19;129582;-64
2024/01/04 03:11:33;;;;;;;2.30;0.70;;;;;;;18.65;40.80;99862.50;16116339;19;130521;-64
2024/01/04 03:16:55;;;;;;;1.75;0.50;;;;;;;18.63;40.40;99873.84;16118246;19;131269;-64
2024/01/04 03:22:17;;;;;;;3.13;0.68;;;;;;;18.63;40.77;99884.94;16119499;19;129480;-64
2024/01/04 03:27:39;;;;;;;4.15;0.75;;;;;;;18.61;40.60;99895.44;16114876;19;130160;-64
2024/01/04 03:33:01;;;;;;;1.77;0.80;;;;;;;18.58;40.76;99896.84;16114007;19;131814;-63
2024/01/04 03:38:23;;;;;;;2.53;0.80;;;;;;;18.58;40.55;99904.34;16115310;19;130437;-63
2024/01/04 03:43:45;;;;;;;2.78;0.70;;;;;;;18.56;40.81;99906.53;16109617;19;130618;-63
2024/01/04 03:49:07;;;;;;;1.33;0.77;;;;;;;18.54;40.79;99908.75;16119723;19;129696;-63
2024/01/04 03:54:29;;;;;;;1.60;0.45;;;;;;;18.53;40.54;99915.38;16111145;19;131811;-64
2024/01/04 03:59:51;;;;;;;0.95;0.40;;;;;;;18.52;40.58;99933.09;16117195;19;131032;-64
2024/01/04 04:05:13;;;;;;;0.60;0.40;;;;;;;18.51;40.47;99931.44;16116263;19;129946;-64
2024/01/04 04:10:35;;;;;;;2.70;0.40;;;;;;;18.49;40.56;99934.47;16112002;19;130075;-65
2024/01/04 04:15:57;;;;;;;1.35;0.68;;;;;;;18.49;40.54;99941.94;16114733;19;129843;-64
2024/01/04 04:21:20;;;;;;;1.35;0.57;;;;;;;18.48;40.39;99951.34;16115353;19;131183;-63
2024/01/04 04:26:42;;;;;;;1.23;0.40;;;;;;;18.46;40.55;99951.63;16115322;19;130320;-64
2024/01/04 04:32:04;;;;;;;1.95;0.40;;;;;;;18.45;40.89;99961.88;16119929;19;131750;-64
2024/01/04 04:37:26;;;;;;;1.20;0.45;;;;;;;18.43;40.83;99963.22;16115893;19;130780;-64
2024/01/04 04:42:48;;;;;;;2.38;0.90;;;;;;;18.42;40.45;99961.56;16116652;19;131950;-64
2024/01/04 04:48:10;;;;;;;1.55;0.43;;;;;;;18.42;40.74;99967.09;16117253;19;129676;-63
2024/01/04 04:53:32;;;;;;;1.95;0.43;;;;;;;18.40;40.79;99977.63;16112447;19;129764;-63
2024/01/04 04:58:54;;;;;;;1.48;0.63;;;;;;;18.38;40.58;99983.41;16108090;19;130157;-63
2024/01/04 05:04:16;;;;;;;0.98;0.55;;;;;;;18.37;40.71;99986.44;16107249;19;129316;-64
2024/01/04 05:09:38;;;;;;;0.98;0.40;;;;;;;18.37;40.65;99983.66;16114018;19;131476;-64
2024/01/04 05:15:00;;;;;;;1.15;0.47;;;;;;;18.36;40.51;99985.59;16105423;19;130345;-64
2024/01/04 05:20:22;;;;;;;2.05;0.30;;;;;;;18.36;40.84;99998.63;16111976;19;130283;-63
2024/01/04 05:25:45;;;;;;;0.77;0.40;;;;;;;18.36;40.82;100006.94;16110610;19;130440;-65
2024/01/04 05:31:07;;;;;;;1.40;0.52;;;;;;;18.34;40.54;100021.00;16110061;19;130657;-63
2024/01/04 05:36:30;;;;;;;1.13;0.30;;;;;;;18.33;40.84;100024.91;16110021;19;132863;-63
2024/01/04 05:41:52;;;;;;;0.75;0.32;;;;;;;18.32;40.41;100017.72;16107878;19;130632;-63
2024/01/04 05:47:14;;;;;;;1.13;0.40;;;;;;;18.30;40.84;100029.03;16109604;19;133298;-64
2024/01/04 05:52:36;;;;;;;1.65;0.40;;;;;;;18.29;40.85;100037.59;16103564;19;130439;-63
2024/01/04 05:57:58;;;;;;;0.50;0.30;;;;;;;18.29;40.83;100048.69;16104078;19;129585;-63
2024/01/04 06:03:20;;;;;;;1.55;0.43;;;;;;;18.28;40.75;100056.16;16102750;19;131503;-64
2024/01/04 06:08:42;;;;;;;1.00;0.30;;;;;;;18.28;40.56;100061.69;16097091;19;131586;-64
2024/01/04 06:14:05;;;;;;;1.05;0.40;;;;;;;18.27;40.82;100060.03;16108636;19;130728;-63
2024/01/04 06:19:28;;;;;;;1.70;0.55;;;;;;;18.27;40.58;100075.81;16099715;19;130838;-64
2024/01/04 06:24:51;;;;;;;2.15;0.47;;;;;;;18.25;40.71;100087.16;16097482;19;129788;-63
2024/01/04 06:30:13;;;;;;;4.10;0.50;;;;;;;18.25;40.42;100097.38;16098264;19;131869;-62
2024/01/04 06:35:35;;;;;;;7.57;0.80;;;;;;;18.25;40.63;100105.69;16097247;19;130991;-66
2024/01/04 06:40:58;;;;;;;7.97;0.77;;;;;;;18.26;40.52;100115.66;16094722;19;130533;-65
2024/01/04 06:46:20;;;;;;;4.75;0.50;;;;;;;18.26;40.14;100130.34;16096301;19;129568;-66
2024/01/04 06:51:42;;;;;;;4.35;0.80;;;;;;;18.25;40.55;100128.69;16097965;19;130962;-65
2024/01/04 06:57:06;;;;;;;3.10;0.63;;;;;;;18.25;40.28;100131.44;16095059;19;129695;-65
2024/01/04 07:02:29;;;;;;;7.10;1.17;;;;;;;18.24;40.42;100134.47;16097929;19;130386;-65
2024/01/04 07:07:50;;;;;;;5.95;0.63;;;;;;;18.22;40.48;100145.81;16102484;19;130204;-65
2024/01/04 07:13:12;;;;;;;2.78;0.60;;;;;;;18.22;40.72;100154.13;16106193;19;129379;-65
2024/01/04 07:18:34;;;;;;;3.85;0.70;;;;;;;18.21;40.44;100157.97;16109415;19;130470;-65
2024/01/04 07:23:56;;;;;;;3.60;0.43;;;;;;;18.20;40.80;100169.31;16118853;19;130868;-65
2024/01/04 07:29:18;;;;;;;3.60;0.80;;;;;;;18.19;40.58;100167.66;16122779;19;130189;-66
2024/01/04 07:34:41;;;;;;;3.03;0.60;;;;;;;18.19;40.37;100178.72;16120987;19;130057;-65
2024/01/04 07:40:07;;;;;;;1.75;0.68;;;;;;;18.18;40.59;100188.13;16135772;19;129969;-65
2024/01/04 07:45:29;;;;;;;2.80;0.57;;;;;;;18.17;40.69;100198.34;16131944;19;135719;-65
2024/01/04 07:50:52;;;;;;;6.22;0.95;;;;;;;18.14;40.63;100199.72;16134472;19;129889;-64
2024/01/04 07:56:14;;;;;;;3.13;0.80;;;;;;;18.14;40.62;100201.66;16131277;19;131730;-65
2024/01/04 08:01:36;;;;;;;4.88;1.02;;;;;;;18.13;40.84;100203.56;16130239;19;129715;-65
2024/01/04 08:06:58;;;;;;;4.13;1.10;;;;;;;18.13;40.91;100205.53;16125920;19;129357;-65
2024/01/04 08:12:20;;;;;;;2.13;0.50;;;;;;;18.12;40.85;100212.16;16130056;19;129398;-65
2024/01/04 08:17:42;;;;;;;4.35;0.90;;;;;;;18.11;40.50;100214.06;16129205;19;129487;-64
2024/01/04 08:23:04;;;;;;;4.32;0.98;;;;;;;18.10;40.59;100215.16;16128344;19;130036;-65
2024/01/04 08:28:26;;;;;;;4.43;0.80;;;;;;;18.11;40.71;100221.56;16127049;19;130197;-65
2024/01/04 08:33:48;;;;;;;5.25;1.00;;;;;;;18.10;40.91;100223.47;16126813;19;131043;-65
2024/01/04 08:39:11;;;;;;;5.43;0.85;;;;;;;18.10;40.53;100228.19;16125228;19;130487;-65
2024/01/04 08:44:33;;;;;;;2.83;0.80;;;;;;;18.10;40.48;100237.31;16126362;19;130203;-65
2024/01/04 08:50:00;;;;;;;4.03;0.88;;;;;;;18.11;40.64;100243.69;16120735;19;129672;-65
2024/01/04 08:55:22;;;;;;;2.97;0.73;;;;;;;18.11;40.70;100249.22;16106724;19;130274;-65
2024/01/04 09:00:44;;;;;;;5.30;0.77;;;;;;;18.11;40.86;100254.78;16107608;19;129756;-66
2024/01/04 09:06:07;;;;;;;6.85;1.00;;;;;;;18.11;40.48;100272.19;16105555;19;131094;-66
2024/01/04 09:11:29;;;;;;;5.13;0.50;;;;;;;18.10;40.72;100265.00;16107424;19;131192;-65
2024/01/04 09:16:52;;;;;;;3.58;0.68;;;;;;;18.10;40.97;100276.06;16107522;19;131708;-65
2024/01/04 09:22:14;;;;;;;2.60;0.70;;;;;;;18.09;40.79;100274.38;16107560;19;129803;-65
2024/01/04 09:27:36;;;;;;;1.48;0.63;;;;;;;18.09;40.97;100291.00;16106345;19;129636;-65
2024/01/04 09:32:58;;;;;;;2.38;0.90;;;;;;;18.10;40.95;100289.06;16104191;19;130441;-65
2024/01/04 09:38:21;;;;;;;3.65;0.73;;;;;;;18.09;40.90;100293.75;16106725;19;129321;-66
2024/01/04 09:43:43;;;;;;;3.40;0.80;;;;;;;18.10;40.54;100300.16;16106850;19;129774;-66
2024/01/04 09:49:09;;;;;;;5.97;1.00;;;;;;;18.08;40.88;100305.97;16102098;19;129984;-66
2024/01/04 09:54:32;;;;;;;4.13;0.85;;;;;;;18.08;40.55;100325.34;16107392;19;130674;-66
2024/01/04 09:59:54;;;;;;;2.22;0.68;;;;;;;18.07;40.91;100331.97;16110931;19;129599;-67
2024/01/04 10:05:17;;;;;;;2.25;0.68;;;;;;;18.05;41.05;100350.75;16102302;19;132145;-65
2024/01/04 10:10:42;;;;;;;7.13;1.10;;;;;;;18.06;40.59;100354.34;16106789;19;130028;-66
2024/01/04 10:16:05;;;;;;;4.50;0.93;;;;;;;18.06;41.10;100363.50;16108832;19;129780;-65
2024/01/04 10:21:32;;;;;;;5.97;0.85;;;;;;;18.07;41.08;100350.47;16101826;19;129268;-66
2024/01/04 10:26:57;;;;;;;3.40;0.73;;;;;;;18.05;41.08;100363.75;16104198;19;129354;-66
2024/01/04 10:32:19;;;;;;;4.22;0.90;;;;;;;18.05;41.06;100361.81;16101584;19;130847;-65
2024/01/04 10:37:41;;;;;;;5.47;0.98;;;;;;;18.05;40.70;100364.59;16101266;19;131851;-67
2024/01/04 10:43:03;;;;;;;7.25;1.10;;;;;;;18.05;41.19;100367.34;16103254;19;130542;-66
2024/01/04 10:48:25;;;;;;;2.83;1.10;;;;;;;18.06;41.25;100362.66;16105340;19;129454;-65
2024/01/04 10:53:50;;;;;;;3.85;0.90;;;;;;;18.05;40.88;100364.59;16105405;19;131129;-66
2024/01/04 10:59:13;;;;;;;4.47;1.10;;;;;;;18.06;40.99;100373.72;16118668;19;129753;-65
2024/01/04 11:04:36;;;;;;;3.67;1.15;;;;;;;18.07;40.72;100370.72;16117886;19;130036;-65
2024/01/04 11:09:58;;;;;;;11.57;1.23;;;;;;;18.07;40.75;100367.94;16116152;19;130393;-66
2024/01/04 11:15:20;;;;;;;4.97;0.93;;;;;;;18.08;40.91;100377.06;16113933;19;129491;-66
2024/01/04 11:21:11;;;;;;;4.85;1.10;;;;;;;18.10;40.92;100381.25;16117831;19;130196;-66
2024/01/04 11:26:56;;;;;;;4.70;0.90;;;;;;;18.08;40.74;100377.94;16116693;19;130349;-66
2024/01/04 11:32:18;;;;;;;7.25;1.25;;;;;;;18.08;40.75;100371.53;16111702;19;130090;-66
2024/01/04 11:37:41;;;;;;;6.82;1.58;;;;;;;18.08;41.02;100372.38;16110064;19;131695;-65
2024/01/04 11:43:16;;;;;;;5.40;1.20;;;;;;;18.10;41.20;100370.19;16110773;19;130851;-65
2024/01/04 11:48:47;;;;;;;5.13;1.20;;;;;;;18.10;40.95;100374.88;16107971;19;130102;-65
2024/01/04 11:54:13;;;;;;;5.03;1.05;;;;;;;18.08;41.22;100366.00;16112877;19;130705;-65
2024/01/04 11:59:35;;;;;;;3.13;1.02;;;;;;;18.08;41.15;100366.84;16111204;19;129632;-65
2024/01/04 12:04:57;;;;;;;3.13;0.95;;;;;;;18.08;41.07;100358.56;16104971;19;129253;-64
2024/01/04 12:10:20;;;;;;;7.40;1.80;;;;;;;18.09;40.94;100362.97;16107248;19;129738;-65
2024/01/04 12:15:42;;;;;;;4.95;1.23;;;;;;;18.09;40.75;100351.91;16105495;19;130177;-65
2024/01/04 12:21:07;;;;;;;6.05;1.30;;;;;;;18.10;41.26;100353.56;16111900;19;129825;-65
2024/01/04 12:26:38;;;;;;;6.15;1.63;;;;;;;18.09;40.81;100335.28;16109077;19;130040;-65
2024/01/04 12:32:03;;;;;;;9.18;1.38;;;;;;;18.11;40.73;100343.34;16103885;19;130045;-64
2024/01/04 12:37:25;;;;;;;7.67;1.63;;;;;;;18.13;40.76;100336.44;16112338;19;129695;-71
2024/01/04 12:42:47;;;;;;;8.13;1.40;;;;;;;18.14;41.25;100340.91;16121879;19;131130;-70
2024/01/04 12:48:09;;;;;;;9.32;1.60;;;;;;;18.18;41.17;100340.38;16115966;19;130314;-70
2024/01/04 12:53:31;;;;;;;8.38;1.90;;;;;;;18.20;41.04;100343.75;16118128;19;131686;-70
2024/01/04 12:58:56;;;;;;;6.97;1.60;;;;;;;18.22;40.79;100339.63;16116482;19;130456;-71
2024/01/04 13:04:17;;;;;;;6.25;1.55;;;;;;;18.24;41.09;100336.56;16116329;19;130843;-70
2024/01/04 13:09:39;;;;;;;6.10;1.50;;;;;;;18.27;40.76;100341.59;16113559;19;129892;-70
2024/01/04 13:15:01;;;;;;;7.95;1.48;;;;;;;18.28;40.62;100343.28;16110576;19;129678;-70
2024/01/04 13:20:23;;;;;;;8.90;1.40;;;;;;;18.28;40.99;100334.97;16115937;19;130831;-71
2024/01/04 13:25:45;;;;;;;4.65;1.15;;;;;;;18.30;40.71;100336.38;16114935;19;129721;-70
2024/01/04 13:31:08;;;;;;;4.80;1.40;;;;;;;18.30;40.59;100327.25;16110057;19;129790;-70
2024/01/04 13:36:30;;;;;;;5.43;1.23;;;;;;;18.32;40.89;100333.38;16112060;19;131362;-70
2024/01/04 13:41:52;;;;;;;4.75;1.15;;;;;;;18.33;40.78;100323.97;16113456;19;130882;-70
2024/01/04 13:47:14;;;;;;;6.72;1.42;;;;;;;18.35;40.68;100332.84;16118800;19;134044;-70
2024/01/04 13:52:36;;;;;;;6.07;1.50;;;;;;;18.35;40.86;100323.69;16116088;19;129639;-70
2024/01/04 13:57:58;;;;;;;5.78;1.13;;;;;;;18.36;40.86;100328.97;16116027;19;129798;-71
2024/01/04 14:03:20;;;;;;;5.18;1.38;;;;;;;18.37;40.42;100330.66;16110541;19;130528;-70
2024/01/04 14:08:42;;;;;;;9.38;1.35;;;;;;;18.36;40.39;100322.59;16115414;19;130565;-70
2024/01/04 14:14:04;;;;;;;3.85;1.13;;;;;;;18.37;40.46;100333.41;16104485;19;131510;-71
2024/01/04 14:19:26;;;;;;;4.03;1.33;;;;;;;18.38;40.41;100324.00;16113924;19;130100;-71
2024/01/04 14:24:48;;;;;;;4.97;1.48;;;;;;;18.39;40.78;100322.09;16107066;19;129376;-71
2024/01/04 14:30:10;;;;;;;4.10;1.40;;;;;;;18.40;40.61;100319.09;16118604;19;129483;-71
2024/01/04 14:35:33;;;;;;;3.80;1.27;;;;;;;18.39;40.39;100320.19;16123930;19;131701;-71
2024/01/04 14:40:55;;;;;;;4.25;1.17;;;;;;;18.40;40.38;100319.09;16123504;19;131231;-70
2024/01/04 14:46:25;;;;;;;5.18;1.23;;;;;;;18.42;40.47;100327.13;16126213;19;130894;-70
2024/01/04 14:51:47;;;;;;;4.43;1.02;;;;;;;18.41;40.81;100337.38;16125262;19;130008;-71
2024/01/04 14:57:09;;;;;;;2.85;1.00;;;;;;;18.42;40.35;100339.06;16123167;19;130947;-71
2024/01/04 15:02:31;;;;;;;7.53;1.30;;;;;;;18.40;40.35;100338.47;16123346;19;131139;-70
2024/01/04 15:07:53;;;;;;;4.30;1.20;;;;;;;18.39;40.46;100342.34;16123403;19;130061;-71
2024/01/04 15:13:15;;;;;;;5.30;1.10;;;;;;;18.40;40.33;100334.88;16120650;19;129544;-70
2024/01/04 15:18:37;;;;;;;5.90;1.88;;;;;;;18.39;40.59;100334.03;16121106;19;129575;-71
2024/01/04 15:23:59;;;;;;;3.63;1.27;;;;;;;18.37;40.43;100327.88;16114995;19;130667;-71
2024/01/04 15:29:21;;;;;;;3.20;1.17;;;;;;;18.37;40.50;100330.66;16120969;19;130390;-70
2024/01/04 15:34:43;;;;;;;3.80;1.08;;;;;;;18.37;40.37;100333.41;16120258;19;131358;-70
2024/01/04 15:40:06;;;;;;;5.15;1.25;;;;;;;18.35;40.54;100327.28;16117365;19;130323;-70
2024/01/04 15:45:28;;;;;;;3.45;1.10;;;;;;;18.35;40.60;100332.84;16121995;19;130118;-71
2024/01/04 15:50:50;;;;;;;3.97;1.13;;;;;;;18.35;40.52;100327.28;16119657;19;129564;-70
2024/01/04 15:56:13;;;;;;;6.25;1.35;;;;;;;18.50;40.62;100323.06;16122712;19;129887;-70
2024/01/04 16:01:36;;;;;;;3.03;1.00;;;;;;;18.71;40.44;100330.47;16119719;19;129678;-69
2024/01/04 16:07:01;;;;;;;3.80;1.27;;;;;;;19.02;40.18;100325.25;16116870;19;129855;-71
2024/01/04 16:12:25;;;;;;;4.38;1.23;;;;;;;19.28;39.42;100328.28;16114471;19;131197;-70
2024/01/04 16:17:47;;;;;;;3.53;0.93;;;;;;;19.45;39.41;100330.03;16109161;19;129839;-70
2024/01/04 16:23:10;;;;;;;2.25;0.82;;;;;;;19.53;39.26;100322.06;16108276;19;131100;-70
2024/01/04 16:28:31;;;;;;;4.82;1.33;;;;;;;19.59;38.91;100311.81;16110398;19;130226;-71
2024/01/04 16:33:54;;;;;;;9.38;1.40;;;;;;;19.58;39.10;100315.69;16112221;19;129930;-68
2024/01/04 16:39:17;;;;;;;6.00;1.58;;;;;;;19.55;38.75;100310.72;16113707;19;129888;-70
2024/01/04 16:44:39;;;;;;;4.90;1.30;;;;;;;19.56;38.87;100300.44;16108004;19;131245;-71
2024/01/04 16:50:04;;;;;;;7.90;1.50;;;;;;;19.52;38.39;100302.91;16116122;19;129351;-70
2024/01/04 16:55:26;;;;;;;6.40;1.45;;;;;;;19.53;38.43;100302.63;16106896;19;130727;-70
2024/01/04 17:00:48;;;;;;;10.88;1.70;;;;;;;19.53;38.36;100291.53;16109475;19;131726;-77
2024/01/04 17:06:11;;;;;;;5.63;1.50;;;;;;;19.50;38.68;100292.09;16105133;19;130361;-72
2024/01/04 17:11:33;;;;;;;4.88;1.50;;;;;;;19.52;38.68;100289.84;16106793;19;130895;-78
2024/01/04 17:16:55;;;;;;;6.45;1.50;;;;;;;19.53;38.62;100285.16;16109470;19;130499;-75
2024/01/04 17:22:17;;;;;;;6.45;1.40;;;;;;;19.57;38.53;100258.53;16109292;19;129635;-74
2024/01/04 17:27:39;;;;;;;4.60;1.40;;;;;;;19.63;38.57;100238.03;16110858;19;130609;-75
2024/01/04 17:33:01;;;;;;;5.40;1.42;;;;;;;19.68;38.62;100249.19;16109393;19;130392;-70
2024/01/04 17:38:23;;;;;;;8.00;1.30;;;;;;;19.75;38.72;100242.53;16104686;19;131831;-70
2024/01/04 17:43:45;;;;;;;6.00;1.40;;;;;;;19.83;38.73;100228.13;16105767;19;130253;-71
2024/01/04 17:49:07;;;;;;;5.28;1.40;;;;;;;19.95;38.48;100209.28;16105585;19;130648;-71
2024/01/04 17:54:30;;;;;;;2.67;1.08;;;;;;;20.11;38.42;100206.59;16105134;19;130973;-71
2024/01/04 17:59:52;;;;;;;14.10;1.85;;;;;;;20.30;38.26;100226.38;16103329;19;129880;-70
2024/01/04 18:05:14;;;;;;;8.95;1.35;;;;;;;20.49;38.58;100226.66;16108999;19;129797;-70
2024/01/04 18:10:36;;;;;;;11.00;1.67;;;;;;;20.69;38.32;100228.63;16108002;19;130663;-71
2024/01/04 18:15:58;;;;;;;5.30;1.33;;;;;;;20.88;38.10;100212.25;16102824;19;130673;-71
2024/01/04 18:21:20;;;;;;;7.90;1.33;;;;;;;21.05;37.84;100203.63;16103493;19;130235;-71
2024/01/04 18:26:42;;;;;;;5.25;1.30;;;;;;;21.15;38.23;100201.94;16104584;19;129493;-71
2024/01/04 18:32:05;;;;;;;6.85;1.48;;;;;;;21.14;37.98;100197.47;16103890;19;130872;-71
2024/01/04 18:37:27;;;;;;;4.18;1.10;;;;;;;21.11;38.18;100195.28;16106048;19;132066;-71
2024/01/04 18:42:50;;;;;;;8.07;1.13;;;;;;;21.04;38.00;100195.56;16023931;19;138343;-70
2024/01/04 18:48:12;;;;;;;8.00;1.65;;;;;;;20.99;38.19;100193.59;16100043;19;130426;-71
2024/01/04 18:53:34;;;;;;;10.25;1.70;;;;;;;20.94;38.66;100181.66;16097764;19;132345;-70
2024/01/04 18:58:56;;;;;;;7.78;1.20;;;;;;;20.85;38.64;100167.50;16102980;19;130387;-71
2024/01/04 19:04:18;;;;;;;9.50;1.35;;;;;;;20.77;38.90;100163.34;16103176;19;132194;-72
2024/01/04 19:09:40;;;;;;;12.25;1.20;;;;;;;20.72;38.96;100155.81;16102681;19;129471;-71
2024/01/04 19:15:03;;;;;;;19.50;1.70;;;;;;;20.69;38.90;100147.19;16105070;19;129947;-70
2024/01/04 19:20:41;;;;;;;5.78;1.30;;;;;;;20.59;39.42;100129.41;16118616;19;130266;-72
2024/01/04 19:26:03;;;;;;;13.75;2.28;;;;;;;20.52;39.23;100131.66;16115726;19;130375;-71
2024/01/04 19:31:25;;;;;;;7.97;1.27;;;;;;;20.50;38.97;100130.25;16119976;19;130913;-69
2024/01/04 19:36:47;;;;;;;31.20;2.95;;;;;;;20.49;39.22;100121.09;16113413;19;129668;-69
2024/01/04 19:42:09;;;;;;;19.65;2.28;;;;;;;20.53;39.17;100122.22;16115769;19;130277;-68
2024/01/04 19:47:31;;;;;;;21.80;2.60;;;;;;;20.56;39.50;100102.19;16111162;19;131579;-68
2024/01/04 19:52:53;;;;;;;20.70;2.17;;;;;;;20.60;39.23;100081.06;16116457;19;131221;-69
2024/01/04 19:58:15;;;;;;;24.17;2.65;;;;;;;20.66;39.41;100089.41;16112595;19;129765;-64
2024/01/04 20:03:37;;;;;;;34.30;3.17;;;;;;;20.68;38.94;100076.88;16112267;19;129722;-64
2024/01/04 20:09:00;;;;;;;29.85;3.20;;;;;;;20.71;39.18;100075.47;16109410;19;129553;-64
2024/01/04 20:14:22;;;;;;;20.67;2.28;;;;;;;20.75;39.50;100057.13;16114631;19;129797;-69
2024/01/04 20:19:44;;;;;;;15.55;2.63;;;;;;;20.78;39.45;100053.81;16116858;19;129534;-70
2024/01/04 20:25:06;;;;;;;19.75;2.75;;;;;;;20.85;39.18;100057.13;16113868;19;129752;-74
2024/01/04 20:30:28;;;;;;;28.00;2.60;;;;;;;20.95;39.32;100047.09;16124972;19;129510;-72
2024/01/04 20:35:51;;;;;;;22.88;2.50;;;;;;;20.99;39.08;100037.06;16119006;19;129761;-74
2024/01/04 20:41:12;;;;;;;19.10;2.47;;;;;;;21.00;38.94;100033.19;16117537;19;130437;-77
2024/01/04 20:46:36;;;;;;;13.65;2.20;;;;;;;20.99;38.93;100032.31;16116837;19;130901;-72
2024/01/04 20:51:59;;;;;;;16.10;2.20;;;;;;;20.93;39.05;100027.91;16120742;19;130757;-74
2024/01/04 20:57:21;;;;;;;8.93;2.42;;;;;;;20.87;39.48;100023.47;16138454;19;130616;-72
2024/01/04 21:02:43;;;;;;;10.82;2.35;;;;;;;20.82;39.38;100002.09;16163413;19;129141;-73
2024/01/04 21:08:05;;;;;;;12.27;1.92;;;;;;;20.76;39.18;100003.25;16163331;19;129360;-74
2024/01/04 21:13:27;;;;;;;16.83;2.13;;;;;;;20.72;39.63;99982.66;16146953;19;129377;-73
2024/01/04 21:18:49;;;;;;;11.98;2.13;;;;;;;20.67;39.16;99974.34;16157499;19;132756;-73
2024/01/04 21:24:11;;;;;;;10.90;1.70;;;;;;;20.60;39.35;99950.44;16136759;19;130583;-71
2024/01/04 21:29:33;;;;;;;18.67;2.15;;;;;;;20.54;39.54;99940.50;16106082;19;133159;-71
2024/01/04 21:34:55;;;;;;;15.75;1.98;;;;;;;20.52;39.58;99931.59;16141199;19;130454;-68
2024/01/04 21:40:17;;;;;;;20.85;2.45;;;;;;;20.47;39.43;99922.44;16091433;19;131073;-65
2024/01/04 21:45:39;;;;;;;14.27;1.90;;;;;;;20.38;39.83;99908.31;16082200;19;131438;-65
2024/01/04 21:51:05;;;;;;;9.07;1.75;;;;;;;20.29;39.70;99900.56;16088839;19;129932;-65
2024/01/04 21:56:29;;;;;;;8.68;2.08;;;;;;;20.20;39.73;99893.91;16093194;19;130996;-65
2024/01/04 22:01:51;;;;;;;12.47;2.17;;;;;;;20.13;39.53;99887.84;16087241;19;130147;-64
2024/01/04 22:07:13;;;;;;;9.45;1.83;;;;;;;20.05;39.63;99875.34;16087371;19;131267;-65
2024/01/04 22:12:35;;;;;;;11.43;2.20;;;;;;;19.96;39.57;99874.25;16095010;19;131061;-64
2024/01/04 22:17:57;;;;;;;8.27;1.90;;;;;;;19.89;39.63;99868.97;16089145;19;131191;-66
2024/01/04 22:23:19;;;;;;;10.00;1.60;;;;;;;19.83;39.67;99861.75;16097668;19;130134;-65
2024/01/04 22:28:41;;;;;;;9.38;1.40;;;;;;;19.75;39.65;99857.63;16101074;19;131290;-64
2024/01/04 22:34:03;;;;;;;12.68;1.75;;;;;;;19.69;39.86;99855.97;16098340;19;129809;-65
2024/01/04 22:39:25;;;;;;;8.13;1.73;;;;;;;19.63;40.02;99852.38;16100967;19;129592;-65
2024/01/04 22:44:47;;;;;;;7.32;1.70;;;;;;;19.57;39.77;99847.91;16103200;19;129562;-64
2024/01/04 22:50:09;;;;;;;7.43;1.80;;;;;;;19.52;39.94;99832.13;16107199;19;131330;-64
2024/01/04 22:55:31;;;;;;;6.35;1.45;;;;;;;19.50;40.21;99833.53;16116047;19;129148;-66
2024/01/04 23:00:54;;;;;;;4.85;1.38;;;;;;;19.46;39.96;99829.63;16111680;19;131707;-66
2024/01/04 23:06:16;;;;;;;5.85;1.50;;;;;;;19.42;39.75;99823.81;16113819;19;130213;-65
2024/01/04 23:11:38;;;;;;;8.20;1.25;;;;;;;19.37;40.11;99816.34;16115373;19;129798;-65
2024/01/04 23:17:01;;;;;;;9.57;1.65;;;;;;;19.34;39.90;99814.09;16110439;19;131536;-65
2024/01/04 23:22:23;;;;;;;5.97;1.67;;;;;;;19.31;39.86;99794.44;16109076;19;130901;-64
2024/01/04 23:27:45;;;;;;;6.65;1.48;;;;;;;19.27;39.77;99783.06;16108394;19;131498;-65
2024/01/04 23:33:07;;;;;;;6.53;1.70;;;;;;;19.22;39.81;99775.59;16106752;19;131424;-65
2024/01/04 23:38:29;;;;;;;3.88;1.30;;;;;;;19.19;40.24;99759.47;16105851;19;129876;-66
2024/01/04 23:43:51;;;;;;;5.28;1.40;;;;;;;19.15;40.01;99741.72;16106073;19;130881;-64
2024/01/04 23:49:13;;;;;;;5.40;1.17;;;;;;;19.14;40.04;99742.81;16108470;19;130575;-64
2024/01/04 23:54:35;;;;;;;4.63;1.25;;;;;;;19.10;40.11;99736.19;16107484;19;129494;-64
2024/01/04 23:59:57;;;;;;;6.40;1.52;;;;;;;19.06;39.84;99733.16;16102046;19;131266;-64
